createdAt,value
2022-08-22T00:00:43.678Z,20.09
2022-08-22T00:01:40.006Z,20.04
2022-08-22T00:02:40.046Z,20.09
2022-08-22T00:02:46.585Z,22.78
2022-08-22T00:02:48.678Z,23.06
2022-08-22T00:03:07.261Z,21.58
2022-08-22T00:03:40.027Z,19.99
2022-08-22T00:04:40.039Z,20.07
2022-08-22T00:05:40.043Z,20.10
2022-08-22T00:06:40.060Z,20.02
2022-08-22T00:07:40.069Z,20.07
2022-08-22T00:08:40.082Z,20.09
2022-08-22T00:09:40.092Z,20.11
2022-08-22T00:10:40.096Z,20.06
2022-08-22T00:11:40.118Z,20.10
2022-08-22T00:12:40.122Z,20.11
2022-08-22T00:13:40.136Z,20.10
2022-08-22T00:14:40.143Z,20.13
2022-08-22T00:15:43.383Z,20.03
2022-08-22T00:16:40.166Z,20.02
2022-08-22T00:17:40.177Z,20.02
2022-08-22T00:18:40.188Z,19.95
2022-08-22T00:19:40.192Z,19.94
2022-08-22T00:20:40.208Z,19.96
2022-08-22T00:21:40.221Z,19.92
2022-08-22T00:22:40.220Z,19.99
2022-08-22T00:23:40.239Z,19.91
2022-08-22T00:24:40.246Z,19.82
2022-08-22T00:25:40.254Z,19.82
2022-08-22T00:26:45.086Z,19.82
2022-08-22T00:27:45.014Z,19.76
2022-08-22T00:28:40.287Z,19.77
2022-08-22T00:29:40.301Z,19.76
2022-08-22T00:30:40.307Z,19.73
2022-08-22T00:31:40.323Z,19.74
2022-08-22T00:32:40.328Z,19.71
2022-08-22T00:33:40.338Z,19.74
2022-08-22T00:34:40.355Z,19.70
2022-08-22T00:35:44.854Z,19.69
2022-08-22T00:36:40.379Z,19.69
2022-08-22T00:37:40.381Z,19.71
2022-08-22T00:38:40.393Z,19.69
2022-08-22T00:39:40.475Z,19.67
2022-08-22T00:40:40.418Z,19.66
2022-08-22T00:41:40.421Z,19.62
2022-08-22T00:42:40.441Z,19.67
2022-08-22T00:43:40.441Z,19.63
2022-08-22T00:44:40.458Z,19.59
2022-08-22T00:45:40.470Z,19.66
2022-08-22T00:46:40.471Z,19.49
2022-08-22T00:47:40.483Z,19.58
2022-08-22T00:48:40.501Z,19.54
2022-08-22T00:49:40.512Z,19.47
2022-08-22T00:50:40.519Z,19.48
2022-08-22T00:51:40.531Z,19.47
2022-08-22T00:52:40.533Z,19.48
2022-08-22T00:53:40.545Z,19.44
2022-08-22T00:54:40.560Z,19.49
2022-08-22T00:55:40.568Z,19.52
2022-08-22T00:56:40.585Z,19.37
2022-08-22T00:57:40.586Z,19.48
2022-08-22T00:58:40.594Z,19.47
2022-08-22T00:59:40.614Z,19.40
2022-08-22T01:00:40.615Z,19.44
2022-08-22T01:01:40.714Z,19.37
2022-08-22T01:02:40.635Z,19.39
2022-08-22T01:03:40.654Z,19.37
2022-08-22T01:04:40.667Z,19.37
2022-08-22T01:05:40.676Z,19.39
2022-08-22T01:06:40.685Z,19.47
2022-08-22T01:07:40.693Z,19.49
2022-08-22T01:08:40.706Z,19.47
2022-08-22T01:09:40.714Z,19.45
2022-08-22T01:10:40.726Z,19.41
2022-08-22T01:11:40.738Z,19.49
2022-08-22T01:12:40.748Z,19.48
2022-08-22T01:13:40.755Z,19.37
2022-08-22T01:14:40.766Z,19.40
2022-08-22T01:15:40.767Z,19.44
2022-08-22T01:16:40.786Z,19.36
2022-08-22T01:17:40.795Z,19.52
2022-08-22T01:18:40.798Z,19.47
2022-08-22T01:19:40.808Z,19.41
2022-08-22T01:44:42.006Z,19.02
2022-08-22T01:45:42.024Z,18.92
2022-08-22T01:46:42.034Z,18.93
2022-08-22T01:47:42.034Z,18.93
2022-08-22T01:48:42.045Z,18.95
2022-08-22T01:49:42.055Z,18.90
2022-08-22T01:50:42.068Z,18.96
2022-08-22T01:51:42.081Z,18.98
2022-08-22T01:52:42.092Z,19.00
2022-08-22T01:53:42.104Z,18.89
2022-08-22T01:54:42.106Z,18.90
2022-08-22T01:55:42.113Z,18.90
2022-08-22T01:56:42.132Z,18.88
2022-08-22T01:57:42.143Z,18.90
2022-08-22T01:58:42.150Z,18.99
2022-08-22T02:10:18.887Z,18.88
2022-08-22T02:11:18.902Z,18.73
2022-08-22T02:12:21.839Z,18.75
2022-08-22T02:13:18.913Z,18.78
2022-08-22T02:22:34.814Z,18.73
2022-08-22T02:23:34.823Z,18.70
2022-08-22T02:24:34.824Z,18.75
2022-08-22T02:25:34.842Z,18.73
2022-08-22T02:26:34.851Z,18.73
2022-08-22T02:27:34.855Z,18.65
2022-08-22T02:34:12.489Z,18.65
2022-08-22T02:35:11.679Z,18.55
2022-08-22T02:36:11.698Z,18.63
2022-08-22T02:37:11.707Z,18.65
2022-08-22T02:38:11.721Z,18.66
2022-08-22T02:39:11.726Z,18.66
2022-08-22T02:40:11.787Z,18.65
2022-08-22T02:41:11.738Z,18.65
2022-08-22T02:42:11.750Z,18.63
2022-08-22T02:43:11.764Z,18.56
2022-08-22T02:44:11.776Z,18.60
2022-08-22T02:45:11.775Z,18.55
2022-08-22T02:46:11.788Z,18.58
2022-08-22T02:47:11.795Z,18.50
2022-08-22T02:48:11.813Z,18.49
2022-08-22T02:49:11.817Z,18.50
2022-08-22T02:50:12.719Z,18.44
2022-08-22T02:51:11.835Z,18.45
2022-08-22T02:52:11.845Z,18.44
2022-08-22T02:53:11.854Z,18.50
2022-08-22T02:54:11.870Z,18.52
2022-08-22T02:55:11.872Z,18.47
2022-08-22T02:56:11.881Z,18.44
2022-08-22T02:57:14.111Z,18.45
2022-08-22T02:58:11.907Z,18.49
2022-08-22T02:59:11.911Z,18.52
2022-08-22T03:00:27.658Z,18.43
2022-08-22T03:01:12.040Z,18.41
2022-08-22T03:02:11.939Z,18.53
2022-08-22T03:03:11.956Z,18.44
2022-08-22T03:04:11.959Z,18.43
2022-08-22T03:05:11.975Z,18.43
2022-08-22T03:06:11.983Z,18.44
2022-08-22T03:07:11.987Z,18.34
2022-08-22T03:08:13.008Z,18.26
2022-08-22T03:09:12.011Z,18.29
2022-08-22T03:10:12.022Z,18.33
2022-08-22T03:11:12.030Z,18.25
2022-08-22T03:12:12.033Z,18.29
2022-08-22T03:13:12.052Z,18.28
2022-08-22T03:14:12.060Z,18.31
2022-08-22T03:15:12.067Z,18.22
2022-08-22T03:16:12.071Z,18.23
2022-08-22T03:17:12.087Z,18.25
2022-08-22T03:18:12.097Z,18.16
2022-08-22T03:19:13.320Z,18.15
2022-08-22T03:20:12.109Z,18.11
2022-08-22T03:21:12.124Z,18.13
2022-08-22T03:22:12.135Z,18.15
2022-08-22T03:23:12.143Z,18.20
2022-08-22T03:24:12.146Z,18.18
2022-08-22T03:25:12.157Z,18.20
2022-08-22T03:26:12.165Z,18.19
2022-08-22T03:27:12.175Z,18.22
2022-08-22T03:28:12.189Z,18.20
2022-08-22T03:29:12.201Z,18.22
2022-08-22T03:30:12.202Z,18.19
2022-08-22T03:31:12.217Z,18.22
2022-08-22T03:32:12.226Z,18.15
2022-08-22T03:33:12.230Z,18.19
2022-08-22T03:34:12.246Z,18.18
2022-08-22T03:35:12.249Z,18.08
2022-08-22T03:36:12.258Z,18.16
2022-08-22T03:37:12.276Z,18.07
2022-08-22T03:38:12.275Z,18.08
2022-08-22T03:39:17.193Z,18.13
2022-08-22T03:40:12.368Z,18.13
2022-08-22T03:41:12.311Z,18.11
2022-08-22T03:42:12.322Z,18.11
2022-08-22T03:43:12.324Z,18.16
2022-08-22T03:44:12.332Z,18.08
2022-08-22T03:45:12.341Z,18.07
2022-08-22T03:46:12.358Z,18.04
2022-08-22T03:47:12.359Z,18.07
2022-08-22T03:48:12.378Z,18.04
2022-08-22T03:49:12.385Z,18.03
2022-08-22T03:50:12.389Z,18.04
2022-08-22T03:51:12.405Z,18.00
2022-08-22T03:52:12.406Z,18.01
2022-08-22T03:53:19.043Z,18.00
2022-08-22T03:54:12.424Z,18.01
2022-08-22T03:55:12.433Z,17.98
2022-08-22T03:56:12.451Z,17.97
2022-08-22T03:57:12.451Z,17.97
2022-08-22T03:58:27.334Z,18.03
2022-08-22T03:59:12.476Z,17.97
2022-08-22T04:00:12.478Z,17.94
2022-08-22T04:01:12.568Z,17.95
2022-08-22T04:02:24.677Z,17.97
2022-08-22T04:03:12.513Z,17.85
2022-08-22T04:04:12.514Z,17.94
2022-08-22T04:05:12.532Z,17.82
2022-08-22T04:06:12.831Z,17.72
2022-08-22T04:07:19.665Z,17.72
2022-08-22T04:08:12.982Z,17.79
2022-08-22T04:09:12.570Z,17.70
2022-08-22T04:10:12.577Z,17.59
2022-08-22T04:11:12.589Z,17.56
2022-08-22T04:12:12.587Z,17.51
2022-08-22T04:13:12.605Z,17.67
2022-08-22T04:14:12.605Z,17.65
2022-08-22T04:15:12.615Z,17.59
2022-08-22T04:16:12.625Z,17.72
2022-08-22T04:17:12.641Z,17.68
2022-08-22T04:18:12.652Z,17.71
2022-08-22T04:19:12.651Z,17.60
2022-08-22T04:20:12.669Z,17.67
2022-08-22T04:21:12.675Z,17.68
2022-08-22T04:22:12.688Z,17.70
2022-08-22T04:23:12.699Z,17.68
2022-08-22T04:24:12.707Z,17.60
2022-08-22T04:25:12.705Z,17.57
2022-08-22T04:26:12.929Z,17.60
2022-08-22T04:27:12.734Z,17.64
2022-08-22T04:28:12.734Z,17.52
2022-08-22T04:29:12.741Z,17.54
2022-08-22T04:30:12.756Z,17.68
2022-08-22T04:31:12.766Z,17.68
2022-08-22T04:32:14.700Z,17.68
2022-08-22T04:33:12.778Z,17.57
2022-08-22T04:34:12.786Z,17.57
2022-08-22T04:35:12.796Z,17.63
2022-08-22T04:36:12.811Z,17.56
2022-08-22T04:37:12.814Z,17.60
2022-08-22T04:38:12.829Z,17.57
2022-08-22T04:39:12.840Z,17.63
2022-08-22T04:40:12.877Z,17.60
2022-08-22T04:41:12.850Z,17.57
2022-08-22T04:42:31.797Z,17.56
2022-08-22T04:43:12.867Z,17.56
2022-08-22T04:44:13.449Z,17.57
2022-08-22T04:45:12.886Z,17.54
2022-08-22T04:46:12.892Z,17.54
2022-08-22T04:47:12.909Z,17.56
2022-08-22T04:48:12.921Z,17.65
2022-08-22T04:49:12.928Z,17.56
2022-08-22T04:50:12.928Z,17.64
2022-08-22T04:51:12.946Z,17.72
2022-08-22T04:52:12.947Z,17.68
2022-08-22T04:53:12.957Z,17.76
2022-08-22T04:54:12.964Z,17.63
2022-08-22T04:55:12.974Z,17.71
2022-08-22T04:56:12.981Z,17.56
2022-08-22T04:57:12.999Z,17.68
2022-08-22T04:58:13.007Z,17.59
2022-08-22T04:59:13.017Z,17.70
2022-08-22T05:00:13.019Z,17.71
2022-08-22T05:01:13.035Z,17.67
2022-08-22T05:02:13.048Z,17.72
2022-08-22T05:03:13.046Z,17.64
2022-08-22T05:04:13.053Z,17.70
2022-08-22T05:05:13.736Z,17.65
2022-08-22T05:06:13.071Z,17.54
2022-08-22T05:07:13.087Z,17.67
2022-08-22T05:08:13.099Z,17.68
2022-08-22T05:09:16.250Z,17.51
2022-08-22T05:10:13.109Z,17.57
2022-08-22T05:11:13.117Z,17.59
2022-08-22T05:12:13.134Z,17.68
2022-08-22T05:13:13.140Z,17.56
2022-08-22T05:14:13.152Z,17.56
2022-08-22T05:15:13.158Z,17.64
2022-08-22T05:16:13.167Z,17.63
2022-08-22T05:17:15.586Z,17.68
2022-08-22T05:18:13.191Z,17.68
2022-08-22T05:19:16.156Z,17.70
2022-08-22T05:20:13.198Z,17.72
2022-08-22T05:21:13.956Z,17.78
2022-08-22T05:22:13.223Z,17.64
2022-08-22T05:23:17.077Z,17.74
2022-08-22T05:24:13.232Z,17.71
2022-08-22T05:25:13.243Z,17.60
2022-08-22T05:26:13.258Z,17.60
2022-08-22T05:27:13.266Z,17.64
2022-08-22T05:28:13.265Z,17.59
2022-08-22T05:29:13.284Z,17.57
2022-08-22T05:30:13.284Z,17.56
2022-08-22T05:31:13.295Z,17.56
2022-08-22T05:32:13.309Z,17.54
2022-08-22T05:33:13.323Z,17.56
2022-08-22T05:34:13.320Z,17.63
2022-08-22T05:35:13.336Z,17.68
2022-08-22T05:36:13.345Z,17.59
2022-08-22T05:37:13.348Z,17.57
2022-08-22T05:38:13.363Z,17.59
2022-08-22T05:39:13.365Z,17.64
2022-08-22T05:40:13.416Z,17.59
2022-08-22T05:41:13.381Z,17.63
2022-08-22T05:42:13.400Z,17.57
2022-08-22T05:43:13.406Z,17.59
2022-08-22T05:44:13.412Z,17.60
2022-08-22T05:45:13.454Z,17.56
2022-08-22T05:46:13.429Z,17.54
2022-08-22T05:47:13.443Z,17.63
2022-08-22T05:48:13.454Z,17.76
2022-08-22T05:49:13.460Z,17.68
2022-08-22T05:50:13.472Z,17.80
2022-08-22T05:51:13.479Z,17.70
2022-08-22T05:52:13.489Z,17.80
2022-08-22T05:53:13.497Z,17.90
2022-08-22T05:54:13.509Z,17.82
2022-08-22T05:55:13.507Z,17.92
2022-08-22T05:56:13.526Z,17.92
2022-08-22T05:57:13.534Z,18.01
2022-08-22T05:58:13.536Z,18.05
2022-08-22T05:59:13.545Z,18.10
2022-08-22T06:00:13.554Z,18.18
2022-08-22T06:01:13.565Z,18.19
2022-08-22T06:02:13.694Z,18.15
2022-08-22T06:03:13.587Z,18.28
2022-08-22T06:04:13.599Z,18.23
2022-08-22T06:05:13.600Z,18.38
2022-08-22T06:06:13.610Z,18.43
2022-08-22T06:07:13.623Z,18.38
2022-08-22T06:08:13.628Z,18.44
2022-08-22T06:09:13.644Z,18.47
2022-08-22T06:10:13.656Z,18.52
2022-08-22T06:11:13.657Z,18.45
2022-08-22T06:12:21.739Z,18.45
2022-08-22T06:13:13.674Z,18.50
2022-08-22T06:14:13.697Z,18.52
2022-08-22T06:15:13.702Z,18.62
2022-08-22T06:16:13.702Z,18.58
2022-08-22T06:17:13.718Z,18.63
2022-08-22T06:18:13.727Z,18.65
2022-08-22T06:19:19.080Z,18.70
2022-08-22T06:20:13.738Z,18.71
2022-08-22T06:21:13.755Z,18.84
2022-08-22T06:22:13.821Z,18.74
2022-08-22T06:23:13.768Z,18.93
2022-08-22T06:24:13.785Z,18.90
2022-08-22T06:25:13.789Z,18.95
2022-08-22T06:26:20.477Z,19.07
2022-08-22T06:27:13.813Z,19.09
2022-08-22T06:28:13.812Z,19.18
2022-08-22T06:29:13.832Z,19.29
2022-08-22T06:30:13.840Z,19.30
2022-08-22T06:31:13.850Z,19.45
2022-08-22T06:32:13.853Z,19.40
2022-08-22T06:33:13.862Z,19.47
2022-08-22T06:34:13.880Z,19.48
2022-08-22T06:35:13.887Z,19.62
2022-08-22T06:36:13.900Z,19.63
2022-08-22T06:37:13.901Z,19.70
2022-08-22T06:38:13.919Z,19.63
2022-08-22T06:39:13.928Z,19.69
2022-08-22T06:40:13.984Z,19.77
2022-08-22T06:41:13.947Z,19.77
2022-08-22T06:42:16.718Z,19.89
2022-08-22T06:43:13.961Z,19.86
2022-08-22T06:44:13.971Z,19.99
2022-08-22T06:45:13.986Z,19.89
2022-08-22T06:46:13.998Z,20.02
2022-08-22T06:47:13.998Z,20.06
2022-08-22T06:48:14.010Z,20.16
2022-08-22T06:49:14.019Z,20.21
2022-08-22T06:50:14.060Z,20.29
2022-08-22T06:51:14.040Z,20.26
2022-08-22T06:52:14.048Z,20.31
2022-08-22T06:53:14.059Z,20.26
2022-08-22T06:54:14.067Z,20.29
2022-08-22T06:55:14.080Z,20.37
2022-08-22T06:56:14.095Z,20.34
2022-08-22T06:57:14.100Z,20.44
2022-08-22T06:58:14.107Z,20.56
2022-08-22T06:59:14.119Z,20.55
2022-08-22T07:00:14.135Z,20.59
2022-08-22T07:01:14.139Z,20.62
2022-08-22T07:02:14.156Z,20.66
2022-08-22T07:03:14.159Z,20.77
2022-08-22T07:04:14.167Z,20.81
2022-08-22T07:05:14.186Z,20.78
2022-08-22T07:06:14.188Z,20.87
2022-08-22T07:07:14.207Z,20.88
2022-08-22T07:08:14.219Z,20.95
2022-08-22T07:09:14.220Z,20.96
2022-08-22T07:10:14.231Z,21.02
2022-08-22T07:11:14.246Z,21.06
2022-08-22T07:12:14.259Z,21.09
2022-08-22T07:13:14.269Z,21.11
2022-08-22T07:14:14.272Z,21.15
2022-08-22T07:15:14.287Z,21.22
2022-08-22T07:16:14.301Z,21.22
2022-08-22T07:17:14.309Z,21.29
2022-08-22T07:18:14.314Z,21.36
2022-08-22T07:19:14.322Z,21.37
2022-08-22T07:20:14.342Z,21.48
2022-08-22T07:21:14.343Z,21.60
2022-08-22T07:22:14.368Z,21.52
2022-08-22T07:23:14.376Z,21.58
2022-08-22T07:24:14.400Z,21.70
2022-08-22T07:25:14.393Z,21.85
2022-08-22T07:26:14.396Z,21.82
2022-08-22T07:27:14.407Z,21.91
2022-08-22T07:28:15.961Z,21.99
2022-08-22T07:29:14.441Z,22.06
2022-08-22T07:30:14.445Z,22.14
2022-08-22T07:31:14.453Z,22.15
2022-08-22T07:32:14.466Z,22.20
2022-08-22T07:33:25.920Z,22.25
2022-08-22T07:34:14.480Z,22.25
2022-08-22T07:35:14.496Z,22.30
2022-08-22T07:36:14.509Z,22.23
2022-08-22T07:37:14.521Z,22.38
2022-08-22T07:38:14.530Z,22.35
2022-08-22T07:39:14.536Z,22.36
2022-08-22T07:40:14.567Z,22.36
2022-08-22T07:41:14.565Z,22.29
2022-08-22T07:42:14.570Z,22.44
2022-08-22T07:43:14.588Z,22.53
2022-08-22T07:44:14.598Z,22.59
2022-08-22T07:45:14.601Z,22.63
2022-08-22T07:46:14.614Z,22.68
2022-08-22T07:47:14.630Z,22.80
2022-08-22T07:48:22.663Z,22.73
2022-08-22T07:49:14.654Z,22.81
2022-08-22T07:50:14.658Z,22.90
2022-08-22T07:51:14.666Z,22.94
2022-08-22T07:52:14.686Z,22.91
2022-08-22T07:53:15.528Z,23.03
2022-08-22T07:54:14.706Z,23.10
2022-08-22T07:55:14.718Z,23.21
2022-08-22T07:56:14.725Z,23.15
2022-08-22T07:57:14.735Z,23.36
2022-08-22T07:58:14.755Z,23.51
2022-08-22T07:59:14.760Z,23.59
2022-08-22T08:00:14.770Z,23.66
2022-08-22T08:01:14.830Z,23.77
2022-08-22T08:02:14.796Z,23.92
2022-08-22T08:03:14.812Z,24.03
2022-08-22T08:04:14.823Z,24.17
2022-08-22T08:05:14.829Z,24.29
2022-08-22T08:06:14.849Z,24.57
2022-08-22T08:07:14.852Z,25.04
2022-08-22T08:08:15.665Z,25.80
2022-08-22T08:09:14.878Z,26.75
2022-08-22T08:10:14.889Z,27.65
2022-08-22T08:11:14.908Z,28.60
2022-08-22T08:12:14.913Z,29.47
2022-08-22T08:13:14.924Z,30.19
2022-08-22T08:14:14.942Z,30.90
2022-08-22T08:15:14.947Z,31.52
2022-08-22T08:16:14.960Z,32.15
2022-08-22T08:17:14.978Z,32.67
2022-08-22T08:18:15.008Z,33.08
2022-08-22T08:19:14.992Z,33.40
2022-08-22T08:20:15.014Z,33.73
2022-08-22T08:21:15.025Z,34.08
2022-08-22T08:22:15.032Z,34.40
2022-08-22T08:23:15.051Z,34.81
2022-08-22T08:24:15.063Z,35.04
2022-08-22T08:25:15.074Z,35.27
2022-08-22T08:26:15.088Z,35.49
2022-08-22T08:27:15.091Z,35.67
2022-08-22T08:28:15.112Z,35.82
2022-08-22T08:29:15.116Z,36.01
2022-08-22T08:30:15.686Z,36.23
2022-08-22T08:31:15.152Z,36.35
2022-08-22T08:32:15.156Z,36.51
2022-08-22T08:33:24.959Z,36.61
2022-08-22T08:34:15.182Z,36.70
2022-08-22T08:35:15.201Z,36.86
2022-08-22T08:36:15.214Z,36.96
2022-08-22T08:37:15.232Z,37.08
2022-08-22T08:38:15.239Z,37.13
2022-08-22T08:39:15.254Z,37.26
2022-08-22T08:40:15.326Z,37.44
2022-08-22T08:41:17.027Z,37.58
2022-08-22T08:42:15.291Z,37.77
2022-08-22T08:43:15.297Z,37.96
2022-08-22T08:44:15.311Z,37.92
2022-08-22T08:45:15.325Z,37.97
2022-08-22T08:46:15.345Z,38.17
2022-08-22T08:47:15.360Z,38.21
2022-08-22T08:48:15.366Z,38.21
2022-08-22T08:49:15.389Z,38.05
2022-08-22T08:51:07.967Z,37.89
2022-08-22T08:52:07.988Z,37.59
2022-08-22T08:53:07.998Z,37.68
2022-08-22T08:54:10.849Z,37.70
2022-08-22T14:51:21.207Z,28.64
2022-08-22T14:52:20.508Z,28.62
2022-08-22T14:53:20.253Z,28.74
2022-08-22T14:54:21.624Z,28.67
2022-08-22T14:55:20.287Z,28.72
2022-08-22T14:56:20.321Z,28.64
2022-08-22T14:57:20.509Z,28.62
2022-08-22T14:58:26.413Z,28.47
2022-08-22T14:59:20.360Z,28.47
2022-08-22T15:00:20.382Z,28.32
2022-08-22T15:01:21.667Z,28.30
2022-08-22T15:02:20.422Z,28.41
2022-08-22T15:06:36.429Z,28.39
2022-08-22T15:08:19.001Z,28.47
2022-08-22T15:09:19.422Z,28.39
2022-08-22T15:10:20.860Z,28.38
2022-08-22T15:11:19.054Z,28.37
2022-08-22T15:12:19.065Z,28.39
2022-08-22T15:13:19.091Z,28.30
2022-08-22T15:14:19.107Z,28.29
2022-08-22T15:15:19.119Z,28.15
2022-08-22T15:16:19.136Z,28.17
2022-08-22T15:17:19.172Z,28.17
2022-08-22T15:18:19.179Z,28.05
2022-08-22T15:19:19.190Z,28.05
2022-08-22T15:20:22.796Z,28.08
2022-08-22T15:21:21.006Z,28.08
2022-08-22T15:22:19.249Z,28.00
2022-08-22T15:23:19.266Z,28.04
2022-08-22T15:24:19.285Z,27.96
2022-08-22T15:25:19.294Z,28.00
2022-08-22T15:26:19.313Z,27.83
2022-08-22T15:27:19.335Z,27.92
2022-08-22T15:28:20.482Z,27.85
2022-08-22T15:29:20.332Z,27.85
2022-08-22T15:30:21.246Z,27.83
2022-08-22T15:31:20.416Z,27.82
2022-08-22T15:32:19.421Z,27.82
2022-08-22T15:33:19.441Z,27.82
2022-08-22T15:35:25.280Z,27.92
2022-08-22T15:36:25.095Z,27.93
2022-08-22T15:37:22.079Z,27.93
2022-08-22T15:38:22.100Z,28.04
2022-08-22T15:39:22.123Z,28.01
2022-08-22T15:40:22.194Z,28.08
2022-08-22T15:41:22.187Z,28.08
2022-08-22T15:42:22.169Z,28.17
2022-08-22T15:43:22.410Z,28.23
2022-08-22T15:44:32.738Z,28.22
2022-08-22T15:45:22.315Z,28.20
2022-08-22T15:46:22.239Z,28.25
2022-08-22T15:47:24.176Z,28.17
2022-08-22T15:48:22.276Z,28.27
2022-08-22T15:49:22.292Z,28.19
2022-08-22T15:50:22.309Z,28.20
2022-08-22T15:51:22.334Z,28.17
2022-08-22T15:52:22.346Z,28.10
2022-08-22T15:53:22.363Z,28.14
2022-08-22T15:54:24.698Z,28.05
2022-08-22T15:55:22.396Z,28.05
2022-08-22T15:56:22.415Z,28.05
2022-08-22T15:57:22.442Z,28.04
2022-08-22T15:58:22.451Z,28.07
2022-08-22T15:59:22.475Z,28.08
2022-08-22T16:00:22.486Z,28.01
2022-08-22T16:01:22.627Z,27.98
2022-08-22T16:02:22.526Z,27.93
2022-08-22T16:03:22.543Z,27.95
2022-08-22T16:04:22.561Z,27.90
2022-08-22T16:05:22.578Z,27.89
2022-08-22T16:06:22.588Z,27.86
2022-08-22T16:07:22.611Z,27.93
2022-08-22T16:08:22.629Z,27.85
2022-08-22T16:09:22.649Z,27.82
2022-08-22T16:11:10.224Z,27.77
2022-08-22T16:12:10.233Z,27.77
2022-08-22T16:13:10.259Z,27.75
2022-08-22T16:14:10.275Z,27.78
2022-08-22T16:15:10.292Z,27.68
2022-08-22T16:16:10.298Z,27.55
2022-08-22T16:17:10.317Z,27.51
2022-08-22T16:18:10.340Z,27.44
2022-08-22T16:19:10.369Z,27.47
2022-08-22T16:20:20.012Z,27.36
2022-08-22T16:21:10.391Z,27.33
2022-08-22T16:22:10.399Z,27.39
2022-08-22T16:23:10.414Z,27.27
2022-08-22T16:24:10.429Z,27.25
2022-08-22T16:25:10.913Z,27.27
2022-08-22T16:26:10.472Z,27.26
2022-08-22T16:27:10.487Z,27.30
2022-08-22T16:28:10.502Z,27.25
2022-08-22T16:29:14.732Z,27.21
2022-08-22T16:30:10.540Z,27.27
2022-08-22T16:31:53.102Z,27.15
2022-08-22T16:32:53.118Z,27.17
2022-08-22T16:33:53.127Z,27.11
2022-08-22T16:34:53.150Z,27.12
2022-08-22T16:35:53.158Z,27.11
2022-08-22T16:36:53.175Z,27.08
2022-08-22T16:37:53.189Z,27.11
2022-08-22T16:38:53.213Z,27.02
2022-08-22T16:39:53.255Z,27.00
2022-08-22T16:40:53.238Z,26.97
2022-08-22T16:41:53.253Z,26.96
2022-08-22T16:42:53.268Z,26.99
2022-08-22T16:43:55.101Z,26.90
2022-08-22T16:44:53.308Z,26.90
2022-08-22T16:45:53.317Z,26.89
2022-08-22T16:46:53.338Z,26.92
2022-08-22T16:48:05.305Z,26.89
2022-08-22T16:48:53.362Z,26.85
2022-08-22T16:49:53.378Z,26.90
2022-08-22T16:50:53.400Z,26.83
2022-08-22T16:51:53.408Z,26.89
2022-08-22T16:52:53.430Z,26.93
2022-08-22T16:53:53.437Z,26.93
2022-08-22T16:54:53.462Z,26.88
2022-08-22T16:55:53.469Z,26.85
2022-08-22T16:56:53.485Z,26.89
2022-08-22T16:58:05.657Z,26.84
2022-08-22T16:58:59.136Z,26.92
2022-08-22T16:59:53.539Z,26.89
2022-08-22T17:00:57.691Z,26.85
2022-08-22T17:01:53.639Z,26.85
2022-08-22T17:02:53.579Z,26.85
2022-08-22T17:03:53.601Z,26.81
2022-08-22T17:04:53.608Z,26.81
2022-08-22T17:05:53.633Z,26.83
2022-08-22T17:06:53.645Z,26.78
2022-08-22T17:07:53.653Z,26.73
2022-08-22T17:08:53.670Z,26.71
2022-08-22T17:09:53.683Z,26.68
2022-08-22T17:10:53.701Z,26.70
2022-08-22T17:11:53.723Z,26.65
2022-08-22T17:13:36.281Z,26.58
2022-08-22T17:14:36.295Z,26.60
2022-08-22T17:15:36.318Z,26.53
2022-08-22T17:16:36.327Z,26.47
2022-08-22T17:17:36.349Z,26.58
2022-08-22T17:18:36.365Z,26.55
2022-08-22T17:19:36.378Z,26.48
2022-08-22T17:20:36.392Z,26.48
2022-08-22T17:21:36.397Z,26.44
2022-08-22T17:22:36.421Z,26.43
2022-08-22T17:24:33.497Z,26.38
2022-08-22T17:34:55.017Z,26.21
2022-08-22T17:36:47.598Z,26.21
2022-08-22T17:37:47.614Z,26.29
2022-08-22T17:38:47.632Z,26.22
2022-08-22T17:39:49.257Z,26.26
2022-08-22T17:40:47.662Z,26.25
2022-08-22T17:41:47.675Z,26.21
2022-08-22T17:42:50.305Z,26.06
2022-08-22T17:43:49.275Z,26.13
2022-08-22T17:44:47.718Z,26.16
2022-08-22T17:45:47.732Z,26.05
2022-08-22T17:46:47.748Z,26.07
2022-08-22T17:47:47.755Z,26.10
2022-08-22T17:48:47.769Z,26.06
2022-08-22T17:49:47.792Z,26.10
2022-08-22T17:50:47.832Z,26.06
2022-08-22T17:51:47.813Z,26.06
2022-08-22T17:52:47.829Z,25.98
2022-08-22T17:53:47.850Z,25.98
2022-08-22T17:54:47.865Z,25.87
2022-08-22T17:55:47.871Z,25.87
2022-08-22T17:56:47.884Z,25.80
2022-08-22T17:57:47.899Z,25.75
2022-08-22T17:58:47.920Z,25.78
2022-08-22T17:59:47.936Z,25.66
2022-08-22T18:00:47.943Z,25.68
2022-08-22T18:01:48.039Z,25.53
2022-08-22T18:02:47.982Z,25.54
2022-08-22T18:03:47.992Z,25.55
2022-08-22T18:04:47.999Z,25.47
2022-08-22T18:05:48.019Z,25.43
2022-08-22T18:06:48.033Z,25.47
2022-08-22T18:07:48.047Z,25.40
2022-08-22T18:09:17.972Z,25.33
2022-08-22T18:09:48.078Z,25.28
2022-08-22T18:10:48.090Z,25.28
2022-08-22T18:11:48.097Z,25.33
2022-08-22T18:12:48.111Z,25.23
2022-08-22T18:13:48.133Z,25.21
2022-08-22T18:14:48.140Z,25.16
2022-08-22T18:15:48.153Z,25.14
2022-08-22T18:16:48.175Z,25.17
2022-08-22T18:17:48.181Z,25.10
2022-08-22T18:18:48.201Z,25.08
2022-08-22T18:19:48.207Z,25.06
2022-08-22T18:20:48.232Z,24.95
2022-08-22T18:21:48.238Z,24.96
2022-08-22T18:22:48.251Z,24.95
2022-08-22T18:23:49.046Z,24.84
2022-08-22T18:24:49.503Z,24.88
2022-08-22T18:25:48.292Z,24.78
2022-08-22T18:26:50.941Z,24.81
2022-08-22T18:30:36.943Z,24.73
2022-08-22T18:31:38.494Z,24.76
2022-08-22T18:33:53.701Z,24.69
2022-08-22T18:34:53.707Z,24.68
2022-08-22T18:35:54.696Z,24.57
2022-08-22T18:36:55.383Z,24.61
2022-08-22T18:37:53.748Z,24.54
2022-08-22T18:38:53.768Z,24.58
2022-08-22T18:39:53.801Z,24.55
2022-08-22T18:40:53.796Z,24.54
2022-08-22T18:41:53.817Z,24.53
2022-08-22T18:42:53.815Z,24.53
2022-08-22T18:43:53.835Z,24.43
2022-08-22T18:44:53.850Z,24.48
2022-08-22T18:45:53.868Z,24.39
2022-08-22T18:46:53.868Z,24.38
2022-08-22T18:47:53.889Z,24.42
2022-08-22T18:49:14.195Z,24.36
2022-08-22T18:49:53.916Z,24.39
2022-08-22T18:50:53.931Z,24.33
2022-08-22T18:51:53.936Z,24.38
2022-08-22T18:52:55.998Z,24.33
2022-08-22T18:53:53.961Z,24.33
2022-08-22T18:54:53.983Z,24.29
2022-08-22T18:55:53.989Z,24.33
2022-08-22T18:56:54.009Z,24.29
2022-08-22T18:57:54.016Z,24.24
2022-08-22T18:58:54.271Z,24.28
2022-08-22T18:59:54.047Z,24.17
2022-08-22T19:00:54.078Z,24.18
2022-08-22T19:01:54.075Z,24.20
2022-08-22T19:02:55.942Z,24.20
2022-08-22T19:03:54.101Z,24.16
2022-08-22T19:04:54.107Z,24.14
2022-08-22T19:05:54.119Z,24.11
2022-08-22T19:06:54.141Z,24.05
2022-08-22T19:07:54.154Z,24.02
2022-08-22T19:08:54.158Z,23.99
2022-08-22T19:09:54.184Z,24.05
2022-08-22T19:10:54.189Z,24.06
2022-08-22T19:11:54.198Z,24.02
2022-08-22T19:12:54.254Z,24.02
2022-08-22T19:13:54.232Z,24.10
2022-08-22T19:14:54.237Z,24.02
2022-08-22T19:15:54.259Z,23.98
2022-08-22T19:16:54.262Z,23.96
2022-08-22T19:17:57.328Z,23.96
2022-08-22T19:18:54.297Z,23.95
2022-08-22T19:19:54.302Z,23.98
2022-08-22T19:20:54.316Z,23.98
2022-08-22T19:21:54.327Z,23.95
2022-08-22T19:22:54.431Z,23.96
2022-08-22T19:23:54.353Z,23.96
2022-08-22T19:24:54.375Z,23.91
2022-08-22T19:25:54.386Z,23.96
2022-08-22T19:26:54.399Z,23.93
2022-08-22T19:27:54.414Z,23.88
2022-08-22T19:28:54.422Z,23.92
2022-08-22T19:29:54.430Z,23.83
2022-08-22T19:30:55.254Z,23.86
2022-08-22T19:31:54.457Z,23.83
2022-08-22T19:32:54.532Z,23.81
2022-08-22T19:33:54.491Z,23.84
2022-08-22T19:34:54.501Z,23.77
2022-08-22T19:35:54.516Z,23.76
2022-08-22T19:36:54.526Z,23.77
2022-08-22T19:37:54.540Z,23.74
2022-08-22T19:38:54.553Z,23.71
2022-08-22T19:39:54.790Z,23.71
2022-08-22T19:40:54.579Z,23.69
2022-08-22T19:41:54.593Z,23.68
2022-08-22T19:42:54.628Z,23.59
2022-08-22T19:43:54.610Z,23.76
2022-08-22T19:44:54.630Z,23.63
2022-08-22T19:45:54.635Z,23.66
2022-08-22T19:46:54.659Z,23.56
2022-08-22T19:47:54.659Z,23.68
2022-08-22T19:48:54.673Z,23.61
2022-08-22T19:49:54.687Z,23.55
2022-08-22T19:50:54.700Z,23.59
2022-08-22T19:51:54.712Z,23.55
2022-08-22T19:52:54.778Z,23.51
2022-08-22T19:53:54.743Z,23.54
2022-08-22T19:54:54.758Z,23.55
2022-08-22T19:55:54.764Z,23.54
2022-08-22T19:56:54.782Z,23.51
2022-08-22T19:57:54.795Z,23.46